Time,TemperatureF,DewpointF,PressureIn,WindDirection,WindDirectionDegrees,WindSpeedMPH,WindSpeedGustMPH,Humidity,HourlyPrecipIn,Conditions,Clouds,dailyrainin,SoftwareType,DateUTC
2013-01-05 00:00:00,23.5,10.1,29.23,NNW,337,0.0,0.0,56,0.00,,,0.00,WUHU216WMR100,2013-01-05 05:00:00,
2013-01-05 00:02:00,23.2,9.8,29.23,NNW,337,0.0,0.0,56,0.00,,,0.00,WUHU216WMR100,2013-01-05 05:02:00,
2013-01-05 00:07:00,23.4,10.0,29.23,NNW,337,0.0,0.0,56,0.00,,,0.00,WUHU216WMR100,2013-01-05 05:07:00,
2013-01-05 00:12:00,23.2,10.2,29.23,NNW,337,0.0,0.0,57,0.00,,,0.00,WUHU216WMR100,2013-01-05 05:12:00,
2013-01-05 00:17:00,23.2,10.2,29.23,NNW,337,0.0,0.0,57,0.00,,,0.00,WUHU216WMR100,2013-01-05 05:17:00,
2013-01-05 00:22:00,23.5,10.9,29.23,NNW,337,0.0,0.0,58,0.00,,,0.00,WUHU216WMR100,2013-01-05 05:22:00,
2013-01-05 00:27:00,23.7,11.1,29.23,NNW,337,0.0,0.0,58,0.00,,,0.00,WUHU216WMR100,2013-01-05 05:27:00,
2013-01-05 00:32:00,23.5,10.5,29.23,NNW,337,0.0,0.0,57,0.00,,,0.00,WUHU216WMR100,2013-01-05 05:32:00,
2013-01-05 00:37:00,23.4,10.4,29.23,NNW,337,0.0,0.0,57,0.00,,,0.00,WUHU216WMR100,2013-01-05 05:37:00,
2013-01-05 00:42:00,22.8,9.8,29.23,NNW,337,0.0,0.0,57,0.00,,,0.00,WUHU216WMR100,2013-01-05 05:42:00,
2013-01-05 00:47:00,22.8,9.8,29.23,NNW,337,0.0,0.0,57,0.00,,,0.00,WUHU216WMR100,2013-01-05 05:47:00,
2013-01-05 00:52:00,22.8,9.8,29.23,NNW,337,0.0,0.0,57,0.00,,,0.00,WUHU216WMR100,2013-01-05 05:52:00,
2013-01-05 00:57:00,22.5,9.6,29.23,NNW,337,0.0,0.0,57,0.00,,,0.00,WUHU216WMR100,2013-01-05 05:57:00,
2013-01-05 01:02:00,22.3,9.4,29.23,NNW,337,0.0,0.0,57,0.00,,,0.00,WUHU216WMR100,2013-01-05 06:02:00,
2013-01-05 01:07:00,22.1,9.2,29.23,NNW,337,0.0,0.0,57,0.00,,,0.00,WUHU216WMR100,2013-01-05 06:07:00,
2013-01-05 01:12:00,22.1,9.2,29.23,NNW,337,0.0,0.0,57,0.00,,,0.00,WUHU216WMR100,2013-01-05 06:12:00,
2013-01-05 01:17:00,21.9,9.4,29.23,NNW,337,0.0,0.0,58,0.00,,,0.00,WUHU216WMR100,2013-01-05 06:17:00,
2013-01-05 01:22:00,21.7,9.2,29.23,NNW,337,0.0,0.0,58,0.00,,,0.00,WUHU216WMR100,2013-01-05 06:22:00,
2013-01-05 01:27:00,21.9,9.8,29.23,NNW,337,0.0,0.0,59,0.00,,,0.00,WUHU216WMR100,2013-01-05 06:27:00,
2013-01-05 01:32:00,21.9,9.8,29.23,NNW,337,0.0,0.0,59,0.00,,,0.00,WUHU216WMR100,2013-01-05 06:32:00,
2013-01-05 01:37:00,21.9,9.8,29.23,NNW,337,0.0,0.0,59,0.00,,,0.00,WUHU216WMR100,2013-01-05 06:37:00,
2013-01-05 01:42:00,21.7,9.6,29.23,NNW,337,0.0,0.0,59,0.00,,,0.00,WUHU216WMR100,2013-01-05 06:42:00,
2013-01-05 01:47:00,21.7,9.6,29.23,NNW,337,0.0,0.0,59,0.00,,,0.00,WUHU216WMR100,2013-01-05 06:47:00,
2013-01-05 01:52:00,21.9,10.2,29.23,NNW,337,0.0,0.0,60,0.00,,,0.00,WUHU216WMR100,2013-01-05 06:52:00,
2013-01-05 01:57:00,22.1,10.7,29.23,NNW,337,0.0,0.0,61,0.00,,,0.00,WUHU216WMR100,2013-01-05 06:57:00,
2013-01-05 02:02:00,21.7,10.0,29.23,NNW,337,0.0,0.0,60,0.00,,,0.00,WUHU216WMR100,2013-01-05 07:02:00,
2013-01-05 02:07:00,21.9,10.5,29.23,NNW,337,0.0,0.0,61,0.00,,,0.00,WUHU216WMR100,2013-01-05 07:07:00,
2013-01-05 02:12:00,21.9,10.5,29.23,NNW,337,0.0,0.0,61,0.00,,,0.00,WUHU216WMR100,2013-01-05 07:12:00,
2013-01-05 02:17:00,21.9,10.5,29.23,NNW,337,0.0,0.0,61,0.00,,,0.00,WUHU216WMR100,2013-01-05 07:17:00,
2013-01-05 02:22:00,21.9,10.5,29.23,NNW,337,0.0,0.0,61,0.00,,,0.00,WUHU216WMR100,2013-01-05 07:22:00,
2013-01-05 02:27:00,22.3,11.3,29.26,NNW,337,0.0,0.0,62,0.00,,,0.00,WUHU216WMR100,2013-01-05 07:27:00,
2013-01-05 02:32:00,22.5,11.8,29.26,NNW,337,0.0,0.0,63,0.00,,,0.00,WUHU216WMR100,2013-01-05 07:32:00,
2013-01-05 02:37:00,22.5,11.5,29.26,NNW,337,0.0,0.0,62,0.00,,,0.00,WUHU216WMR100,2013-01-05 07:37:00,
2013-01-05 02:42:00,22.1,11.1,29.26,NNW,337,0.0,0.0,62,0.00,,,0.00,WUHU216WMR100,2013-01-05 07:42:00,
2013-01-05 02:47:00,22.3,11.3,29.26,NNW,337,0.0,0.0,62,0.00,,,0.00,WUHU216WMR100,2013-01-05 07:47:00,
2013-01-05 02:52:00,22.3,11.3,29.26,NNW,337,0.0,0.0,62,0.00,,,0.00,WUHU216WMR100,2013-01-05 07:52:00,
2013-01-05 02:57:00,22.1,11.1,29.26,NNW,337,0.0,0.0,62,0.00,,,0.00,WUHU216WMR100,2013-01-05 07:57:00,
2013-01-05 03:02:00,22.1,11.1,29.26,NNW,337,0.0,0.0,62,0.00,,,0.00,WUHU216WMR100,2013-01-05 08:02:00,
2013-01-05 03:07:00,21.9,10.9,29.26,NNW,337,0.0,0.0,62,0.00,,,0.00,WUHU216WMR100,2013-01-05 08:07:00,
2013-01-05 03:12:00,21.7,10.7,29.26,NNW,337,0.0,0.0,62,0.00,,,0.00,WUHU216WMR100,2013-01-05 08:12:00,
2013-01-05 03:17:00,21.9,10.9,29.26,NNW,337,0.0,0.0,62,0.00,,,0.00,WUHU216WMR100,2013-01-05 08:17:00,
2013-01-05 03:22:00,21.9,10.9,29.26,NNW,337,0.0,0.0,62,0.00,,,0.00,WUHU216WMR100,2013-01-05 08:22:00,
2013-01-05 03:27:00,22.1,11.5,29.26,NNW,337,0.0,0.0,63,0.00,,,0.00,WUHU216WMR100,2013-01-05 08:27:00,
2013-01-05 03:32:00,21.9,11.3,29.26,NNW,337,0.0,0.0,63,0.00,,,0.00,WUHU216WMR100,2013-01-05 08:32:00,
2013-01-05 03:37:00,21.9,11.3,29.26,NNW,337,0.0,0.0,63,0.00,,,0.00,WUHU216WMR100,2013-01-05 08:37:00,
2013-01-05 03:42:00,21.9,11.6,29.26,NNW,337,0.0,0.0,64,0.00,,,0.00,WUHU216WMR100,2013-01-05 08:42:00,
2013-01-05 03:47:00,21.9,11.3,29.26,NNW,337,0.0,0.0,63,0.00,,,0.00,WUHU216WMR100,2013-01-05 08:47:00,
2013-01-05 03:52:00,21.6,11.0,29.26,NNW,337,0.0,0.0,63,0.00,,,0.00,WUHU216WMR100,2013-01-05 08:52:00,
2013-01-05 03:57:00,21.7,11.4,29.26,NNW,337,0.0,0.0,64,0.00,,,0.00,WUHU216WMR100,2013-01-05 08:57:00,
2013-01-05 04:02:00,21.9,11.6,29.26,NNW,337,0.0,0.0,64,0.00,,,0.00,WUHU216WMR100,2013-01-05 09:02:00,
2013-01-05 04:07:00,21.6,11.3,29.26,NNW,337,0.0,0.0,64,0.00,,,0.00,WUHU216WMR100,2013-01-05 09:07:00,
2013-01-05 04:12:00,21.6,11.3,29.26,NNW,337,0.0,0.0,64,0.00,,,0.00,WUHU216WMR100,2013-01-05 09:12:00,
2013-01-05 04:17:00,21.6,11.3,29.26,NNW,337,0.0,0.0,64,0.00,,,0.00,WUHU216WMR100,2013-01-05 09:17:00,
2013-01-05 04:22:00,21.4,11.2,29.26,NNW,337,0.0,0.0,64,0.00,,,0.00,WUHU216WMR100,2013-01-05 09:22:00,
2013-01-05 04:27:00,21.4,11.2,29.26,NNW,337,0.0,0.0,64,0.00,,,0.00,WUHU216WMR100,2013-01-05 09:27:00,
2013-01-05 04:32:00,21.6,11.7,29.26,NNW,337,0.0,0.0,65,0.00,,,0.00,WUHU216WMR100,2013-01-05 09:32:00,
2013-01-05 04:37:00,21.6,12.4,29.26,NNW,337,0.0,0.0,67,0.00,,,0.00,WUHU216WMR100,2013-01-05 09:37:00,
2013-01-05 04:42:00,21.9,13.0,29.26,NNW,337,0.0,0.0,68,0.00,,,0.00,WUHU216WMR100,2013-01-05 09:42:00,
2013-01-05 04:47:00,21.6,12.4,29.26,NNW,337,0.0,0.0,67,0.00,,,0.00,WUHU216WMR100,2013-01-05 09:47:00,
2013-01-05 04:52:00,21.0,11.5,29.26,NNW,337,0.0,0.0,66,0.00,,,0.00,WUHU216WMR100,2013-01-05 09:52:00,
2013-01-05 04:57:00,20.8,11.3,29.26,NNW,337,0.0,0.0,66,0.00,,,0.00,WUHU216WMR100,2013-01-05 09:57:00,
2013-01-05 05:02:00,20.3,10.8,29.26,NNW,337,0.0,0.0,66,0.00,,,0.00,WUHU216WMR100,2013-01-05 10:02:00,
2013-01-05 05:07:00,20.3,10.8,29.26,NNW,337,0.0,0.0,66,0.00,,,0.00,WUHU216WMR100,2013-01-05 10:07:00,
2013-01-05 05:12:00,19.9,10.4,29.26,NNW,337,0.0,0.0,66,0.00,,,0.00,WUHU216WMR100,2013-01-05 10:12:00,
2013-01-05 05:17:00,20.1,10.9,29.26,NNW,337,0.0,0.0,67,0.00,,,0.00,WUHU216WMR100,2013-01-05 10:17:00,
2013-01-05 05:22:00,19.6,10.5,29.26,NNW,337,0.0,0.0,67,0.00,,,0.00,WUHU216WMR100,2013-01-05 10:22:00,
2013-01-05 05:27:00,19.2,10.4,29.26,NNW,337,0.0,0.0,68,0.00,,,0.00,WUHU216WMR100,2013-01-05 10:27:00,
2013-01-05 05:32:00,19.0,10.2,29.26,NNW,337,0.0,0.0,68,0.00,,,0.00,WUHU216WMR100,2013-01-05 10:32:00,
2013-01-05 05:37:00,19.0,10.2,29.26,NNW,337,0.0,0.0,68,0.00,,,0.00,WUHU216WMR100,2013-01-05 10:37:00,
2013-01-05 05:42:00,18.7,10.3,29.26,NNW,337,0.0,0.0,69,0.00,,,0.00,WUHU216WMR100,2013-01-05 10:42:00,
2013-01-05 05:47:00,18.3,10.2,29.26,NNW,337,0.0,0.0,70,0.00,,,0.00,WUHU216WMR100,2013-01-05 10:47:00,
2013-01-05 05:52:00,18.1,10.3,29.26,NNW,337,0.0,0.0,71,0.00,,,0.00,WUHU216WMR100,2013-01-05 10:52:00,
2013-01-05 05:57:00,17.8,9.7,29.26,NNW,337,0.0,0.0,70,0.00,,,0.00,WUHU216WMR100,2013-01-05 10:57:00,
2013-01-05 06:02:00,17.6,9.8,29.26,NNW,337,0.0,0.0,71,0.00,,,0.00,WUHU216WMR100,2013-01-05 11:02:00,
2013-01-05 06:07:00,17.1,9.0,29.26,NNW,337,0.0,0.0,70,0.00,,,0.00,WUHU216WMR100,2013-01-05 11:07:00,
2013-01-05 06:12:00,16.7,9.0,29.26,NNW,337,0.0,0.0,71,0.00,,,0.00,WUHU216WMR100,2013-01-05 11:12:00,
2013-01-05 06:17:00,16.2,8.5,29.26,NNW,337,0.0,0.0,71,0.00,,,0.00,WUHU216WMR100,2013-01-05 11:17:00,
2013-01-05 06:22:00,16.2,8.2,29.26,NNW,337,0.0,0.0,70,0.00,,,0.00,WUHU216WMR100,2013-01-05 11:22:00,
2013-01-05 06:27:00,16.2,8.5,29.26,NNW,337,0.0,0.0,71,0.00,,,0.00,WUHU216WMR100,2013-01-05 11:27:00,
2013-01-05 06:32:00,16.2,9.1,29.26,NNW,337,0.0,0.0,73,0.00,,,0.00,WUHU216WMR100,2013-01-05 11:32:00,
2013-01-05 06:37:00,16.2,9.1,29.26,NNW,337,0.0,0.0,73,0.00,,,0.00,WUHU216WMR100,2013-01-05 11:37:00,
2013-01-05 06:42:00,16.0,8.9,29.29,NNW,337,0.0,0.0,73,0.00,,,0.00,WUHU216WMR100,2013-01-05 11:42:00,
2013-01-05 06:47:00,15.8,9.0,29.29,NNW,337,0.0,0.0,74,0.00,,,0.00,WUHU216WMR100,2013-01-05 11:47:00,
2013-01-05 06:52:00,15.4,8.6,29.29,NNW,337,0.0,0.0,74,0.00,,,0.00,WUHU216WMR100,2013-01-05 11:52:00,
2013-01-05 06:57:00,15.4,8.6,29.29,NNW,337,0.0,0.0,74,0.00,,,0.00,WUHU216WMR100,2013-01-05 11:57:00,
2013-01-05 07:02:00,15.3,8.5,29.29,NNW,337,0.0,0.0,74,0.00,,,0.00,WUHU216WMR100,2013-01-05 12:02:00,
2013-01-05 07:07:00,14.9,8.1,29.29,NNW,337,0.0,0.0,74,0.00,,,0.00,WUHU216WMR100,2013-01-05 12:07:00,
2013-01-05 07:12:00,15.4,8.6,29.29,NNW,337,0.0,0.0,74,0.00,,,0.00,WUHU216WMR100,2013-01-05 12:12:00,
2013-01-05 07:17:00,15.6,8.8,29.29,NNW,337,0.0,0.0,74,0.00,,,0.00,WUHU216WMR100,2013-01-05 12:17:00,
2013-01-05 07:22:00,16.0,9.5,29.29,NNW,337,0.0,0.0,75,0.00,,,0.00,WUHU216WMR100,2013-01-05 12:22:00,
2013-01-05 07:27:00,16.0,9.8,29.29,NNW,337,0.0,0.0,76,0.00,,,0.00,WUHU216WMR100,2013-01-05 12:27:00,
2013-01-05 07:32:00,15.4,9.2,29.29,NNW,337,0.0,0.0,76,0.00,,,0.00,WUHU216WMR100,2013-01-05 12:32:00,
2013-01-05 07:37:00,15.6,9.1,29.29,NNW,337,0.0,0.0,75,0.00,,,0.00,WUHU216WMR100,2013-01-05 12:37:00,
2013-01-05 07:42:00,15.6,9.1,29.32,NNW,337,0.0,0.0,75,0.00,,,0.00,WUHU216WMR100,2013-01-05 12:42:00,
2013-01-05 07:47:00,15.3,8.8,29.32,NNW,337,0.0,0.0,75,0.00,,,0.00,WUHU216WMR100,2013-01-05 12:47:00,
2013-01-05 07:52:00,15.3,8.8,29.32,NNW,337,0.0,0.0,75,0.00,,,0.00,WUHU216WMR100,2013-01-05 12:52:00,
2013-01-05 07:57:00,15.4,9.2,29.32,NNW,337,0.0,0.0,76,0.00,,,0.00,WUHU216WMR100,2013-01-05 12:57:00,
2013-01-05 08:02:00,15.8,9.3,29.32,NNW,337,0.0,0.0,75,0.00,,,0.00,WUHU216WMR100,2013-01-05 13:02:00,
2013-01-05 08:07:00,16.5,10.3,29.32,NNW,337,0.0,0.0,76,0.00,,,0.00,WUHU216WMR100,2013-01-05 13:07:00,
2013-01-05 08:12:00,17.2,11.2,29.32,NNW,337,0.0,0.0,77,0.00,,,0.00,WUHU216WMR100,2013-01-05 13:12:00,
2013-01-05 08:17:00,17.8,11.5,29.32,NNW,337,0.0,0.0,76,0.00,,,0.00,WUHU216WMR100,2013-01-05 13:17:00,
2013-01-05 08:18:00,18.0,11.7,29.32,NNW,337,0.0,0.0,76,0.00,,,0.00,WUHU216WMR100,2013-01-05 13:18:00,
2013-01-05 08:22:00,18.5,12.2,29.32,NNW,337,0.0,0.0,76,0.00,,,0.00,WUHU216WMR100,2013-01-05 13:22:00,
2013-01-05 08:27:00,19.4,13.4,29.32,NNW,337,0.0,0.0,77,0.00,,,0.00,WUHU216WMR100,2013-01-05 13:27:00,
2013-01-05 08:32:00,20.1,14.4,29.32,NNW,337,0.0,0.0,78,0.00,,,0.00,WUHU216WMR100,2013-01-05 13:32:00,
2013-01-05 08:37:00,20.5,14.5,29.32,NNW,337,0.0,0.0,77,0.00,,,0.00,WUHU216WMR100,2013-01-05 13:37:00,
2013-01-05 08:42:00,21.0,15.2,29.32,NNW,337,0.0,0.0,78,0.00,,,0.00,WUHU216WMR100,2013-01-05 13:42:00,
2013-01-05 08:47:00,21.9,16.1,29.32,NNW,337,0.0,0.0,78,0.00,,,0.00,WUHU216WMR100,2013-01-05 13:47:00,
2013-01-05 08:52:00,22.6,16.8,29.32,NNW,337,0.0,0.0,78,0.00,,,0.00,WUHU216WMR100,2013-01-05 13:52:00,
2013-01-05 08:57:00,23.0,16.9,29.32,NNW,337,0.0,0.0,77,0.00,,,0.00,WUHU216WMR100,2013-01-05 13:57:00,
2013-01-05 09:02:00,23.9,17.2,29.32,NNW,337,0.0,0.0,75,0.00,,,0.00,WUHU216WMR100,2013-01-05 14:02:00,
2013-01-05 09:07:00,24.1,17.4,29.32,NNW,337,0.0,0.0,75,0.00,,,0.00,WUHU216WMR100,2013-01-05 14:07:00,
2013-01-05 09:12:00,24.3,17.2,29.32,NNW,337,0.0,0.0,74,0.00,,,0.00,WUHU216WMR100,2013-01-05 14:12:00,
2013-01-05 09:17:00,25.0,17.6,29.32,NNW,337,0.0,0.0,73,0.00,,,0.00,WUHU216WMR100,2013-01-05 14:17:00,
2013-01-05 09:22:00,25.3,17.6,29.32,NNW,337,0.0,0.0,72,0.00,,,0.00,WUHU216WMR100,2013-01-05 14:22:00,
2013-01-05 09:27:00,26.1,18.7,29.32,NNW,337,0.0,0.0,73,0.00,,,0.00,WUHU216WMR100,2013-01-05 14:27:00,
2013-01-05 09:32:00,27.1,19.0,29.32,NNW,337,0.0,0.0,71,0.00,,,0.00,WUHU216WMR100,2013-01-05 14:32:00,
2013-01-05 09:37:00,27.7,19.6,29.32,NNW,337,0.0,0.0,71,0.00,,,0.00,WUHU216WMR100,2013-01-05 14:37:00,
2013-01-05 09:42:00,27.7,18.6,29.32,NNW,337,0.0,0.0,68,0.00,,,0.00,WUHU216WMR100,2013-01-05 14:42:00,
2013-01-05 09:47:00,27.9,18.4,29.32,NNW,337,0.0,0.0,67,0.00,,,0.00,WUHU216WMR100,2013-01-05 14:47:00,
2013-01-05 09:52:00,28.2,17.6,29.32,NNW,337,0.0,0.0,64,0.00,,,0.00,WUHU216WMR100,2013-01-05 14:52:00,
2013-01-05 09:57:00,28.8,18.2,29.32,NNW,337,0.0,0.0,64,0.00,,,0.00,WUHU216WMR100,2013-01-05 14:57:00,
2013-01-05 10:02:00,28.8,16.3,29.32,NNW,337,0.0,0.0,59,0.00,,,0.00,WUHU216WMR100,2013-01-05 15:02:00,
2013-01-05 10:07:00,29.5,17.0,29.32,NNW,337,0.0,0.0,59,0.00,,,0.00,WUHU216WMR100,2013-01-05 15:07:00,